createdAt,value
2022-08-14T00:02:17.133Z,99.90
2022-08-14T00:04:45.615Z,99.90
2022-08-14T00:07:14.837Z,99.90
2022-08-14T00:09:55.706Z,99.90
2022-08-14T00:12:39.316Z,99.90
2022-08-14T00:15:15.011Z,99.90
2022-08-14T00:20:31.001Z,99.90
2022-08-14T00:23:12.401Z,99.90
2022-08-14T00:25:58.636Z,99.90
2022-08-14T00:28:37.222Z,99.90
2022-08-14T00:31:07.822Z,99.90
2022-08-14T00:33:52.311Z,99.90
2022-08-14T00:36:35.993Z,99.90
2022-08-14T00:39:18.286Z,99.90
2022-08-14T00:41:48.261Z,99.90
2022-08-14T00:44:27.654Z,99.90
2022-08-14T00:47:03.498Z,99.90
2022-08-14T00:49:37.938Z,99.90
2022-08-14T00:52:07.214Z,99.90
2022-08-14T00:54:37.362Z,99.90
2022-08-14T00:57:07.057Z,99.90
2022-08-14T00:59:39.569Z,99.90
2022-08-14T01:02:10.657Z,99.90
2022-08-14T01:04:54.077Z,99.90
2022-08-14T01:07:24.757Z,99.90
2022-08-14T01:10:01.653Z,99.90
2022-08-14T01:12:30.788Z,99.90
2022-08-14T01:15:03.049Z,99.90
2022-08-14T01:17:49.793Z,99.90
2022-08-14T01:20:40.130Z,99.90
2022-08-14T01:23:16.626Z,99.90
2022-08-14T01:25:51.329Z,99.90
2022-08-14T01:28:47.333Z,99.90
2022-08-14T01:31:15.644Z,99.90
2022-08-14T01:33:59.859Z,99.90
2022-08-14T01:36:39.354Z,99.90
2022-08-14T01:39:13.167Z,99.90
2022-08-14T01:41:44.198Z,99.90
2022-08-14T01:44:32.854Z,99.90
2022-08-14T01:47:21.983Z,99.90
2022-08-14T01:49:59.699Z,99.90
2022-08-14T01:53:00.140Z,99.90
2022-08-14T01:55:30.513Z,99.90
2022-08-14T02:00:54.676Z,99.90
2022-08-14T02:03:30.274Z,99.90
2022-08-14T02:06:04.163Z,99.90
2022-08-14T02:08:52.476Z,99.90
2022-08-14T02:11:24.331Z,99.90
2022-08-14T02:14:06.834Z,99.90
2022-08-14T02:16:44.213Z,99.90
2022-08-14T02:19:17.810Z,99.90
2022-08-14T02:21:50.553Z,99.90
2022-08-14T02:24:39.776Z,99.90
2022-08-14T02:28:23.806Z,99.90
2022-08-14T02:30:02.187Z,99.90
2022-08-14T02:32:44.633Z,99.90
2022-08-14T02:35:17.826Z,99.90
2022-08-14T02:37:49.145Z,99.90
2022-08-14T02:40:19.340Z,99.90
2022-08-14T02:42:54.819Z,99.90
2022-08-14T02:45:38.511Z,99.90
2022-08-14T02:49:03.283Z,99.90
2022-08-14T02:51:07.225Z,99.90
2022-08-14T02:53:42.387Z,99.90
2022-08-14T02:56:30.453Z,99.90
2022-08-14T02:59:07.745Z,99.90
2022-08-14T03:01:50.162Z,99.90
2022-08-14T03:04:20.163Z,99.90
2022-08-14T03:07:06.043Z,99.90
2022-08-14T03:10:24.181Z,99.90
2022-08-14T03:12:32.288Z,99.90
2022-08-14T03:17:57.181Z,99.90
2022-08-14T03:22:57.176Z,99.90
2022-08-14T03:25:25.409Z,99.90
2022-08-14T03:27:58.633Z,99.90
2022-08-14T03:30:39.052Z,99.90
2022-08-14T03:33:10.329Z,99.90
2022-08-14T03:35:59.886Z,99.90
2022-08-14T03:39:11.565Z,99.90
2022-08-14T03:41:23.287Z,99.90
2022-08-14T03:43:57.742Z,99.90
2022-08-14T03:46:51.885Z,99.90
2022-08-14T03:49:28.925Z,99.90
2022-08-14T03:54:30.035Z,99.90
2022-08-14T03:57:02.861Z,99.90
2022-08-14T03:59:32.354Z,99.90
2022-08-14T04:02:04.520Z,99.90
2022-08-14T04:04:53.396Z,99.90
2022-08-14T04:07:22.453Z,99.90
2022-08-14T04:09:51.747Z,99.90
2022-08-14T04:12:26.392Z,99.90
2022-08-14T04:14:55.320Z,99.90
2022-08-14T04:17:26.212Z,99.90
2022-08-14T04:19:55.345Z,99.90
2022-08-14T04:22:25.206Z,99.90
2022-08-14T04:24:53.880Z,99.90
2022-08-14T04:27:23.254Z,99.90
2022-08-14T04:29:51.679Z,99.90
2022-08-14T04:33:01.232Z,99.90
2022-08-14T04:35:10.746Z,99.90
2022-08-14T04:37:56.993Z,99.90
2022-08-14T04:40:42.879Z,99.90
2022-08-14T04:43:38.520Z,99.90
2022-08-14T04:46:11.875Z,99.90
2022-08-14T04:49:00.233Z,99.90
2022-08-14T04:51:37.551Z,99.90
2022-08-14T04:54:16.663Z,99.90
2022-08-14T04:56:45.580Z,99.90
2022-08-14T04:59:14.022Z,99.90
2022-08-14T05:01:48.880Z,99.90
2022-08-14T05:04:20.792Z,99.90
2022-08-14T05:06:53.667Z,99.90
2022-08-14T05:09:24.385Z,99.90
2022-08-14T05:11:53.087Z,99.90
2022-08-14T05:14:45.802Z,99.90
2022-08-14T05:17:13.076Z,99.90
2022-08-14T05:19:44.684Z,99.90
2022-08-14T05:22:31.449Z,99.90
2022-08-14T05:25:00.368Z,99.90
2022-08-14T05:27:31.290Z,99.90
2022-08-14T05:30:01.222Z,99.90
2022-08-14T05:32:29.453Z,99.90
2022-08-14T05:34:59.659Z,99.90
2022-08-14T05:37:30.151Z,99.90
2022-08-14T05:40:02.095Z,99.90
2022-08-14T05:42:31.984Z,99.90
2022-08-14T05:45:03.964Z,99.90
2022-08-14T05:47:39.676Z,99.90
2022-08-14T05:52:50.242Z,99.90
2022-08-14T05:55:23.274Z,99.90
2022-08-14T05:57:59.456Z,99.90
2022-08-14T06:00:36.858Z,99.90
2022-08-14T06:03:11.250Z,99.90
2022-08-14T06:05:40.309Z,99.90
2022-08-14T06:08:31.256Z,99.90
2022-08-14T06:11:08.034Z,99.90
2022-08-14T06:13:45.254Z,99.90
2022-08-14T06:16:17.521Z,99.90
2022-08-14T06:18:48.577Z,99.90
2022-08-14T06:21:21.989Z,99.90
2022-08-14T06:23:51.489Z,99.90
2022-08-14T06:26:22.586Z,99.90
2022-08-14T06:28:58.281Z,99.90
2022-08-14T06:31:26.679Z,99.90
2022-08-14T06:35:03.522Z,99.90
2022-08-14T06:36:43.242Z,99.90
2022-08-14T06:39:12.833Z,99.90
2022-08-14T06:41:59.248Z,99.90
2022-08-14T06:44:33.136Z,99.90
2022-08-14T06:47:04.747Z,99.90
2022-08-14T06:49:40.279Z,99.90
2022-08-14T06:52:15.313Z,99.90
2022-08-14T06:54:45.237Z,99.90
2022-08-14T06:57:15.137Z,99.90
2022-08-14T06:59:43.709Z,99.90
2022-08-14T07:02:29.923Z,99.90
2022-08-14T07:05:20.024Z,99.90
2022-08-14T07:07:49.711Z,99.90
2022-08-14T07:10:22.299Z,99.90
2022-08-14T07:13:03.814Z,99.90
2022-08-14T07:15:40.013Z,99.90
2022-08-14T07:18:12.120Z,99.90
2022-08-14T07:20:42.789Z,99.90
2022-08-14T07:23:19.778Z,99.90
2022-08-14T07:25:52.213Z,99.90
2022-08-14T07:28:27.503Z,99.90
2022-08-14T07:31:04.875Z,99.90
2022-08-14T07:33:36.707Z,99.90
2022-08-14T07:36:26.476Z,99.90
2022-08-14T07:38:56.212Z,99.90
2022-08-14T07:44:06.086Z,99.10
2022-08-14T07:46:49.652Z,99.90
2022-08-14T07:49:18.821Z,99.90
2022-08-14T07:54:23.490Z,96.60
2022-08-14T07:56:59.762Z,98.70
2022-08-14T07:59:42.278Z,94.20
2022-08-14T08:02:17.420Z,94.60
2022-08-14T08:04:54.156Z,94.10
2022-08-14T08:07:24.033Z,93.30
2022-08-14T08:10:01.059Z,95.40
2022-08-14T08:12:32.607Z,92.80
2022-08-14T08:15:07.410Z,95.00
2022-08-14T08:17:42.853Z,90.10
2022-08-14T08:20:27.460Z,90.90
2022-08-14T08:23:00.645Z,90.10
2022-08-14T08:25:40.114Z,88.60
2022-08-14T08:28:19.716Z,86.40
2022-08-14T08:30:59.900Z,86.50
2022-08-14T08:33:37.135Z,82.90
2022-08-14T08:36:12.769Z,82.80
2022-08-14T08:39:14.493Z,83.70
2022-08-14T08:41:43.634Z,80.30
2022-08-14T08:44:17.525Z,77.10
2022-08-14T08:47:06.111Z,77.60
2022-08-14T08:49:43.370Z,76.00
2022-08-14T08:52:25.593Z,77.00
2022-08-14T08:54:59.599Z,74.70
2022-08-14T08:57:37.514Z,73.70
2022-08-14T09:00:24.605Z,76.20
2022-08-14T09:02:59.267Z,73.80
2022-08-14T09:05:28.806Z,75.40
2022-08-14T09:08:30.511Z,73.20
2022-08-14T09:11:18.820Z,72.50
2022-08-14T09:13:52.416Z,71.40
2022-08-14T09:16:24.996Z,71.20
2022-08-14T09:18:56.190Z,71.30
2022-08-14T09:21:31.473Z,67.80
2022-08-14T09:24:28.745Z,67.90
2022-08-14T09:26:50.685Z,68.70
2022-08-14T09:29:23.467Z,66.80
2022-08-14T09:31:57.528Z,69.00
2022-08-14T09:34:58.902Z,69.70
2022-08-14T09:37:45.616Z,65.60
2022-08-14T09:40:32.620Z,65.20
2022-08-14T09:43:22.397Z,60.30
2022-08-14T09:45:53.918Z,61.20
2022-08-14T09:48:27.541Z,61.90
2022-08-14T09:54:17.848Z,65.00
2022-08-14T09:56:45.717Z,61.40
2022-08-14T09:59:22.094Z,60.80
2022-08-14T10:01:52.582Z,61.50
2022-08-14T10:04:34.799Z,57.70
2022-08-14T10:07:08.576Z,59.60
2022-08-14T10:09:59.658Z,61.20
2022-08-14T10:12:52.943Z,62.10
2022-08-14T10:15:26.377Z,59.20
2022-08-14T10:18:17.514Z,58.80
2022-08-14T10:20:57.666Z,59.70
2022-08-14T10:23:33.945Z,60.20
2022-08-14T10:26:08.749Z,59.10
2022-08-14T10:29:18.841Z,59.00
2022-08-14T10:31:40.336Z,58.30
2022-08-14T10:34:29.133Z,58.00
2022-08-14T10:37:14.410Z,57.20
2022-08-14T10:40:01.570Z,56.50
2022-08-14T10:42:38.534Z,58.00
2022-08-14T10:45:21.383Z,53.60
2022-08-14T10:48:08.233Z,58.80
2022-08-14T10:50:46.502Z,55.60
2022-08-14T10:53:15.876Z,56.10
2022-08-14T10:55:48.183Z,53.70
2022-08-14T10:58:32.947Z,53.60
2022-08-14T11:01:05.496Z,53.50
2022-08-14T11:03:56.580Z,54.10
2022-08-14T11:06:27.281Z,54.90
2022-08-14T11:08:56.072Z,52.10
2022-08-14T11:11:28.661Z,53.90
2022-08-14T11:14:09.263Z,53.60
2022-08-14T11:16:40.979Z,51.90
2022-08-14T11:19:20.547Z,52.10
2022-08-14T11:21:56.182Z,51.10
2022-08-14T11:24:54.879Z,55.40
2022-08-14T11:27:25.763Z,51.90
2022-08-14T11:30:51.338Z,51.20
2022-08-14T11:32:55.674Z,52.10
2022-08-14T11:35:44.177Z,51.40
2022-08-14T11:38:19.938Z,50.50
2022-08-14T11:40:49.523Z,52.70
2022-08-14T11:43:22.647Z,50.40
2022-08-14T11:45:58.418Z,52.80
2022-08-14T11:49:02.470Z,52.70
2022-08-14T11:51:30.378Z,53.10
2022-08-14T11:54:06.234Z,52.90
2022-08-14T11:56:37.761Z,52.20
2022-08-14T11:59:10.199Z,51.50
2022-08-14T12:01:41.187Z,49.40
2022-08-14T12:04:32.413Z,49.20
2022-08-14T12:07:03.570Z,50.20
2022-08-14T12:09:34.152Z,50.70
2022-08-14T12:12:36.320Z,50.20
2022-08-14T12:15:14.105Z,50.50
2022-08-14T12:17:55.921Z,50.50
2022-08-14T12:20:32.992Z,51.00
2022-08-14T12:23:05.254Z,50.20
2022-08-14T12:25:36.697Z,51.20
2022-08-14T12:28:27.325Z,52.10
2022-08-14T12:31:16.963Z,49.00
2022-08-14T12:34:01.161Z,49.30
2022-08-14T12:36:31.876Z,49.10
2022-08-14T12:39:04.537Z,49.30
2022-08-14T12:41:37.193Z,48.60
2022-08-14T12:44:08.965Z,48.70
2022-08-14T12:46:43.341Z,48.60
2022-08-14T12:49:16.462Z,49.60
2022-08-14T12:51:56.932Z,50.50
2022-08-14T12:54:28.310Z,48.60
2022-08-14T12:57:08.726Z,47.90
2022-08-14T12:59:42.654Z,48.90
2022-08-14T13:02:26.063Z,47.30
2022-08-14T13:04:58.282Z,47.10
2022-08-14T13:07:32.827Z,47.30
2022-08-14T13:10:12.735Z,48.20
2022-08-14T13:13:13.265Z,46.60
2022-08-14T13:15:47.163Z,46.90
2022-08-14T13:18:19.635Z,47.00
2022-08-14T13:20:59.730Z,47.00
2022-08-14T13:23:37.524Z,48.90
2022-08-14T13:26:10.099Z,48.70
2022-08-14T13:29:02.842Z,47.80
2022-08-14T13:31:37.326Z,48.80
2022-08-14T13:34:08.754Z,46.10
2022-08-14T13:36:51.654Z,47.10
2022-08-14T13:39:29.925Z,47.60
2022-08-14T13:42:04.785Z,47.30
2022-08-14T13:44:42.507Z,48.10
2022-08-14T13:47:15.943Z,46.50
2022-08-14T13:49:57.657Z,46.00
2022-08-14T13:52:52.868Z,46.30
2022-08-14T13:55:28.566Z,45.20
2022-08-14T13:58:03.490Z,45.10
2022-08-14T14:00:51.685Z,44.90
2022-08-14T14:03:23.458Z,46.40
2022-08-14T14:05:57.303Z,46.70
2022-08-14T14:08:46.382Z,44.30
2022-08-14T14:11:24.655Z,44.90
2022-08-14T14:13:56.727Z,46.30
2022-08-14T14:16:30.887Z,46.30
2022-08-14T14:19:09.760Z,45.70
2022-08-14T14:21:42.116Z,46.30
2022-08-14T14:24:16.138Z,46.80
2022-08-14T14:26:49.897Z,45.90
2022-08-14T14:29:24.258Z,46.20
2022-08-14T14:31:58.543Z,48.30
2022-08-14T14:34:33.697Z,45.60
2022-08-14T14:37:07.928Z,47.20
2022-08-14T14:40:53.583Z,46.30
2022-08-14T14:42:35.425Z,46.60
2022-08-14T14:45:15.489Z,47.70
2022-08-14T14:47:48.078Z,46.20
2022-08-14T14:50:18.435Z,46.60
2022-08-14T14:52:51.231Z,47.30
2022-08-14T14:55:21.504Z,47.70
2022-08-14T14:57:52.049Z,48.20
2022-08-14T15:00:31.138Z,49.50
2022-08-14T15:03:00.926Z,48.50
2022-08-14T15:05:30.917Z,47.20
2022-08-14T15:08:05.186Z,47.70
2022-08-14T15:10:38.282Z,47.10
2022-08-14T15:13:09.911Z,47.70
2022-08-14T15:15:40.262Z,47.70
2022-08-14T15:18:35.867Z,48.30
2022-08-14T15:23:44.313Z,47.80
2022-08-14T15:26:24.545Z,47.50
2022-08-14T15:29:05.658Z,47.20
2022-08-14T15:31:37.138Z,49.70
2022-08-14T15:34:45.885Z,48.70
2022-08-14T15:37:03.125Z,48.40
2022-08-14T15:39:34.012Z,48.10
2022-08-14T15:42:14.958Z,49.00
2022-08-14T15:44:57.464Z,49.80
2022-08-14T15:47:29.611Z,48.70
2022-08-14T15:50:00.559Z,48.40
2022-08-14T15:52:32.700Z,49.00
2022-08-14T15:55:08.444Z,48.90
2022-08-14T15:57:37.173Z,50.30
2022-08-14T16:00:44.425Z,48.70
2022-08-14T16:03:16.651Z,49.70
2022-08-14T16:05:45.766Z,48.90
2022-08-14T16:08:27.308Z,49.50
2022-08-14T16:11:09.833Z,48.90
2022-08-14T16:13:45.426Z,50.60
2022-08-14T16:16:34.472Z,49.30
2022-08-14T16:19:21.461Z,50.50
2022-08-14T16:22:01.515Z,50.90
2022-08-14T16:25:02.082Z,51.00
2022-08-14T16:27:38.745Z,51.50
2022-08-14T16:30:25.001Z,50.20
2022-08-14T16:32:59.561Z,50.60
2022-08-14T16:35:42.354Z,51.70
2022-08-14T16:38:46.320Z,51.70
2022-08-14T16:41:26.668Z,52.60
2022-08-14T16:44:02.635Z,52.60
2022-08-14T16:46:38.314Z,53.50
2022-08-14T16:49:16.262Z,52.80
2022-08-14T16:51:52.728Z,53.50
2022-08-14T16:54:35.196Z,53.30
2022-08-14T16:57:21.103Z,54.10
2022-08-14T16:59:57.629Z,53.80
2022-08-14T17:02:38.876Z,54.10
2022-08-14T17:05:22.354Z,54.50
2022-08-14T17:08:46.061Z,54.30
2022-08-14T17:11:12.981Z,54.10
2022-08-14T17:13:58.754Z,54.00
2022-08-14T17:16:38.549Z,54.30
2022-08-14T17:19:14.236Z,54.80
2022-08-14T17:21:47.868Z,56.00
2022-08-14T17:24:56.043Z,57.40
2022-08-14T17:27:10.416Z,57.70
2022-08-14T17:29:56.449Z,58.60
2022-08-14T17:32:44.236Z,58.90
2022-08-14T17:35:53.090Z,59.10
2022-08-14T17:38:39.133Z,59.90
2022-08-14T17:41:32.997Z,60.50
2022-08-14T17:44:19.837Z,61.20
2022-08-14T17:46:57.217Z,61.10
2022-08-14T17:49:32.063Z,62.20
2022-08-14T17:52:17.600Z,62.00
2022-08-14T17:54:52.647Z,63.40
2022-08-14T17:57:35.560Z,63.30
2022-08-14T18:00:15.489Z,64.10
2022-08-14T18:02:51.252Z,63.60
2022-08-14T18:06:08.486Z,64.00
2022-08-14T18:08:31.951Z,64.10
2022-08-14T18:11:05.565Z,64.30
2022-08-14T18:13:51.920Z,64.70
2022-08-14T18:16:24.012Z,65.20
2022-08-14T18:19:05.006Z,65.00
2022-08-14T18:21:57.225Z,65.10
2022-08-14T18:24:31.869Z,66.00
2022-08-14T18:27:09.322Z,66.50
2022-08-14T18:29:54.505Z,67.20
2022-08-14T18:32:47.128Z,67.60
2022-08-14T18:35:19.668Z,68.00
2022-08-14T18:37:55.861Z,67.60
2022-08-14T18:40:34.505Z,67.80
2022-08-14T18:43:06.208Z,68.20
2022-08-14T18:45:41.357Z,68.40
2022-08-14T18:48:50.232Z,71.70
2022-08-14T18:51:45.692Z,72.10
2022-08-14T18:54:32.922Z,73.30
2022-08-14T18:57:03.433Z,74.20
2022-08-14T18:59:43.095Z,75.00
2022-08-14T19:02:45.869Z,75.70
2022-08-14T19:05:14.399Z,75.60
2022-08-14T19:07:48.268Z,75.50
2022-08-14T19:10:37.310Z,76.00
2022-08-14T19:13:11.942Z,75.30
2022-08-14T19:15:45.412Z,75.70
2022-08-14T19:18:28.461Z,76.10
2022-08-14T19:21:02.892Z,76.70
2022-08-14T19:23:59.243Z,75.90
2022-08-14T19:26:51.797Z,75.40
2022-08-14T19:29:37.569Z,75.90
2022-08-14T19:32:40.172Z,76.60
2022-08-14T19:35:59.666Z,76.80
2022-08-14T19:38:57.690Z,77.80
2022-08-14T19:41:33.986Z,77.50
2022-08-14T19:44:19.277Z,77.90
2022-08-14T19:47:01.793Z,78.20
2022-08-14T19:50:07.705Z,79.70
2022-08-14T19:52:37.075Z,80.40
2022-08-14T19:55:18.370Z,81.80
2022-08-14T19:57:52.028Z,82.30
2022-08-14T20:00:28.925Z,82.80
2022-08-14T20:03:10.080Z,83.60
2022-08-14T20:05:45.694Z,83.30
2022-08-14T20:09:05.087Z,84.00
2022-08-14T20:12:00.210Z,84.60
2022-08-14T20:14:20.615Z,84.90
2022-08-14T20:17:04.736Z,85.60
2022-08-14T20:19:41.694Z,85.90
2022-08-14T20:22:35.717Z,85.70
2022-08-14T20:25:19.404Z,87.50
2022-08-14T20:27:59.387Z,88.80
2022-08-14T20:30:33.515Z,89.60
2022-08-14T20:33:10.885Z,90.20
2022-08-14T20:35:49.458Z,90.50
2022-08-14T20:38:30.874Z,94.40
2022-08-14T20:41:12.325Z,99.30
2022-08-14T20:43:57.559Z,99.90
2022-08-14T20:46:31.378Z,99.90
2022-08-14T20:49:04.062Z,99.90
2022-08-14T20:51:47.706Z,99.90
2022-08-14T20:54:36.934Z,99.90
2022-08-14T20:57:22.954Z,99.90
2022-08-14T20:59:57.194Z,99.90
2022-08-14T21:02:46.267Z,99.90
2022-08-14T21:05:23.706Z,99.90
2022-08-14T21:08:10.169Z,99.90
2022-08-14T21:10:56.709Z,99.90
2022-08-14T21:14:20.717Z,99.90
2022-08-14T21:16:34.760Z,99.90
2022-08-14T21:19:06.487Z,99.90
2022-08-14T21:21:41.434Z,99.90
2022-08-14T21:24:39.429Z,99.90
2022-08-14T21:27:12.778Z,99.90
2022-08-14T21:29:55.335Z,99.90
2022-08-14T21:32:50.284Z,99.90
2022-08-14T21:35:28.718Z,99.90
2022-08-14T21:37:58.476Z,99.90
2022-08-14T21:40:40.583Z,99.90
2022-08-14T21:45:53.659Z,99.90
2022-08-14T21:48:25.263Z,99.90
2022-08-14T21:51:52.540Z,99.90
2022-08-14T21:53:58.679Z,99.90
2022-08-14T21:56:38.326Z,99.90
2022-08-14T21:59:17.939Z,99.90
2022-08-14T22:01:59.542Z,99.90
2022-08-14T22:04:34.344Z,99.90
2022-08-14T22:07:07.150Z,99.90
2022-08-14T22:09:37.049Z,99.90
2022-08-14T22:12:08.391Z,99.90
2022-08-14T22:14:43.231Z,99.90
2022-08-14T22:17:17.054Z,99.90
2022-08-14T22:19:54.602Z,99.90
2022-08-14T22:22:26.578Z,99.90
2022-08-14T22:25:00.048Z,99.90
2022-08-14T22:27:31.252Z,99.90
2022-08-14T22:30:03.027Z,99.90
2022-08-14T22:32:55.877Z,99.90
2022-08-14T22:35:23.479Z,99.90
2022-08-14T22:38:34.548Z,99.90
2022-08-14T22:41:07.179Z,99.90
2022-08-14T22:43:35.961Z,99.90
2022-08-14T22:46:15.137Z,99.90
2022-08-14T22:48:51.071Z,99.90
2022-08-14T22:51:23.827Z,99.90
2022-08-14T22:53:56.737Z,99.90
2022-08-14T22:56:30.041Z,99.90
2022-08-14T22:59:01.765Z,99.90
2022-08-14T23:01:55.426Z,99.90
2022-08-14T23:04:34.907Z,99.90
2022-08-14T23:07:22.086Z,99.90
2022-08-14T23:09:57.679Z,99.90
2022-08-14T23:12:54.193Z,99.90
2022-08-14T23:15:28.929Z,99.90
2022-08-14T23:17:59.437Z,99.90
2022-08-14T23:20:29.312Z,99.90
2022-08-14T23:22:59.168Z,99.90
2022-08-14T23:25:56.718Z,99.90
2022-08-14T23:28:34.674Z,99.90
2022-08-14T23:31:16.071Z,99.90
2022-08-14T23:34:07.115Z,99.90
2022-08-14T23:36:53.304Z,99.90
2022-08-14T23:39:29.556Z,99.90
2022-08-14T23:42:04.429Z,99.90
2022-08-14T23:44:37.581Z,99.90
2022-08-14T23:47:11.507Z,99.90
2022-08-14T23:50:00.968Z,99.90
2022-08-14T23:52:50.942Z,99.90
2022-08-14T23:55:24.533Z,99.90
2022-08-14T23:57:57.728Z,99.90
